Time;durP1;ratioP1;P1;durP2;ratioP2;P2;SDS_P1;SDS_P2;PMS_P1;PMS_P2;Temp;Humidity;BMP_temperature;BMP_pressure;BME280_temperature;BME280_humidity;BME280_pressure;Samples;Min_cycle;Max_cycle;Signal;HPM_P1;HPM_P2
2022/01/23 00:00:16;;;;;;;;;;;5.40;99.90;;;;;;5046167;28;19939;-76
2022/01/23 00:02:43;;;;;;;;;;;5.40;99.90;;;;;;5039893;28;20768;-76
2022/01/23 00:05:09;;;;;;;;;;;5.40;99.90;;;;;;5040880;28;20019;-76
2022/01/23 00:07:39;;;;;;;;;;;5.40;99.90;;;;;;5044519;28;20027;-77
2022/01/23 00:10:07;;;;;;;;;;;5.40;99.90;;;;;;5035386;28;19933;-77
2022/01/23 00:12:39;;;;;;;;;;;5.40;99.90;;;;;;5043428;28;19932;-76
2022/01/23 00:17:50;;;;;;;;;;;5.40;99.90;;;;;;5046028;28;20389;-76
2022/01/23 00:20:17;;;;;;;;;;;5.40;99.90;;;;;;5042556;28;19924;-77
2022/01/23 00:22:47;;;;;;;;;;;5.40;99.90;;;;;;5053242;28;19925;-77
2022/01/23 00:30:49;;;;;;;;;;;5.40;99.90;;;;;;5040372;28;19955;-77
2022/01/23 00:33:16;;;;;;;;;;;5.40;99.90;;;;;;5047378;28;19979;-76
2022/01/23 00:35:49;;;;;;;;;;;5.40;99.90;;;;;;5050894;28;19925;-76
2022/01/23 00:38:17;;;;;;;;;;;5.40;99.90;;;;;;5041107;28;19979;-77
2022/01/23 00:40:44;;;;;;;;;;;5.50;99.90;;;;;;5050683;28;20376;-77
2022/01/23 00:43:17;;;;;;;;;;;5.40;99.90;;;;;;5053089;28;20019;-76
2022/01/23 00:45:46;;;;;;;;;;;5.40;99.90;;;;;;5053218;28;19932;-77
2022/01/23 00:48:13;;;;;;;;;;;5.40;99.90;;;;;;5041799;28;20024;-77
2022/01/23 00:50:44;;;;;;;;;;;5.40;99.90;;;;;;5041728;28;19925;-77
2022/01/23 00:53:12;;;;;;;;;;;5.40;99.90;;;;;;5048020;28;20038;-77
2022/01/23 00:55:41;;;;;;;;;;;5.40;99.90;;;;;;5054624;28;20024;-77
2022/01/23 00:58:08;;;;;;;;;;;5.40;99.90;;;;;;5042761;28;20475;-78
2022/01/23 01:00:34;;;;;;;;;;;5.40;99.90;;;;;;5038760;28;19932;-77
2022/01/23 01:03:01;;;;;;;;;;;5.40;99.90;;;;;;5048289;28;20404;-77
2022/01/23 01:05:28;;;;;;;;;;;5.40;99.90;;;;;;5038358;28;19926;-77
2022/01/23 01:07:55;;;;;;;;;;;5.40;99.90;;;;;;5042853;28;19939;-76
2022/01/23 01:10:26;;;;;;;;;;;5.40;99.90;;;;;;5047510;28;19936;-76
2022/01/23 01:12:59;;;;;;;;;;;5.40;99.90;;;;;;5048292;28;19932;-76
2022/01/23 01:15:40;;;;;;;;;;;5.40;99.90;;;;;;5044427;28;19971;-76
2022/01/23 01:31:54;;;;;;;;;;;5.30;99.90;;;;;;5042398;28;19931;-76
2022/01/23 01:34:26;;;;;;;;;;;5.30;99.90;;;;;;5051117;28;19925;-76
2022/01/23 01:36:54;;;;;;;;;;;5.30;99.90;;;;;;5042476;28;19944;-76
2022/01/23 01:39:22;;;;;;;;;;;5.30;99.90;;;;;;5053510;28;19956;-75
2022/01/23 01:41:49;;;;;;;;;;;5.30;99.90;;;;;;5041190;28;20013;-75
2022/01/23 01:44:17;;;;;;;;;;;5.30;99.90;;;;;;5041065;28;19939;-76
2022/01/23 01:46:44;;;;;;;;;;;5.30;99.90;;;;;;5054905;28;19925;-77
2022/01/23 01:49:11;;;;;;;;;;;5.30;99.90;;;;;;5046146;28;20299;-76
2022/01/23 01:51:38;;;;;;;;;;;5.30;99.90;;;;;;5047665;28;19962;-76
2022/01/23 01:54:11;;;;;;;;;;;5.30;99.90;;;;;;5052225;28;19933;-76
2022/01/23 01:56:47;;;;;;;;;;;5.30;99.90;;;;;;5046541;28;19980;-76
2022/01/23 01:59:44;;;;;;;;;;;5.30;99.90;;;;;;5050189;28;19980;-76
2022/01/23 02:10:25;;;;;;;;;;;5.30;99.90;;;;;;5052759;28;19951;-76
2022/01/23 02:13:05;;;;;;;;;;;5.30;99.90;;;;;;5040059;28;19925;-77
2022/01/23 02:24:36;;;;;;;;;;;5.20;99.90;;;;;;5043322;28;20062;-77
2022/01/23 02:51:57;;;;;;;;;;;5.20;99.90;;;;;;5053911;28;20315;-76
2022/01/23 02:54:42;;;;;;;;;;;5.20;99.90;;;;;;5049643;28;19932;-76
2022/01/23 02:57:09;;;;;;;;;;;5.20;99.90;;;;;;5043186;28;19929;-77
2022/01/23 02:59:38;;;;;;;;;;;5.20;99.90;;;;;;5050238;28;19925;-77
2022/01/23 03:02:11;;;;;;;;;;;5.20;99.90;;;;;;5053110;28;19925;-76
2022/01/23 03:04:47;;;;;;;;;;;5.20;99.90;;;;;;5047731;28;20433;-75
2022/01/23 03:07:32;;;;;;;;;;;5.20;99.90;;;;;;5047450;28;20014;-75
2022/01/23 03:10:04;;;;;;;;;;;5.20;99.90;;;;;;5040289;28;20027;-78
2022/01/23 03:15:26;;;;;;;;;;;5.10;99.90;;;;;;5039040;28;19929;-76
2022/01/23 03:26:18;;;;;;;;;;;5.20;99.90;;;;;;5047407;28;19967;-76
2022/01/23 03:29:05;;;;;;;;;;;5.20;99.90;;;;;;5036886;28;20396;-76
2022/01/23 03:31:33;;;;;;;;;;;5.20;99.90;;;;;;5048315;28;20343;-75
2022/01/23 03:34:00;;;;;;;;;;;5.10;99.90;;;;;;5044459;28;19925;-75
2022/01/23 03:36:27;;;;;;;;;;;5.10;99.90;;;;;;5040540;28;20502;-75
2022/01/23 03:38:56;;;;;;;;;;;5.00;99.90;;;;;;5051097;28;19925;-75
2022/01/23 03:41:24;;;;;;;;;;;5.10;99.90;;;;;;5042904;28;19925;-75
2022/01/23 03:43:50;;;;;;;;;;;5.10;99.90;;;;;;5050408;28;19925;-76
2022/01/23 03:46:35;;;;;;;;;;;5.10;99.90;;;;;;5049273;28;19929;-76
2022/01/23 03:51:47;;;;;;;;;;;5.20;99.90;;;;;;5043631;28;20066;-76
2022/01/23 03:54:14;;;;;;;;;;;5.20;99.90;;;;;;5038293;28;20015;-75
2022/01/23 03:56:42;;;;;;;;;;;5.10;99.90;;;;;;5048212;28;19939;-75
2022/01/23 03:59:08;;;;;;;;;;;5.10;99.90;;;;;;5043461;28;19978;-76
2022/01/23 04:01:35;;;;;;;;;;;5.10;99.90;;;;;;5038133;28;20020;-76
2022/01/23 04:04:07;;;;;;;;;;;5.10;99.90;;;;;;5051835;28;19924;-76
2022/01/23 04:06:36;;;;;;;;;;;5.10;99.90;;;;;;5044677;28;21565;-76
2022/01/23 04:09:03;;;;;;;;;;;5.10;99.90;;;;;;5049112;28;19960;-77
2022/01/23 04:11:29;;;;;;;;;;;5.10;99.90;;;;;;5041380;28;20311;-77
2022/01/23 04:14:02;;;;;;;;;;;5.10;99.90;;;;;;5048975;28;19925;-76
2022/01/23 04:19:32;;;;;;;;;;;5.10;99.90;;;;;;5049158;28;19925;-76
2022/01/23 04:33:18;;;;;;;;;;;5.10;99.90;;;;;;5046298;28;20410;-76
2022/01/23 04:45:13;;;;;;;;;;;5.10;99.90;;;;;;5039517;28;19929;-76
2022/01/23 05:00:51;;;;;;;;;;;5.00;99.90;;;;;;5039693;28;20361;-76
2022/01/23 05:06:10;;;;;;;;;;;4.80;99.90;;;;;;5022420;28;20404;-78
2022/01/23 05:08:38;;;;;;;;;;;4.90;99.90;;;;;;5048756;28;19982;-77
2022/01/23 05:11:07;;;;;;;;;;;5.00;99.90;;;;;;5048610;28;19932;-76
2022/01/23 05:13:34;;;;;;;;;;;5.00;99.90;;;;;;5043444;28;19932;-81
2022/01/23 05:16:00;;;;;;;;;;;4.90;99.90;;;;;;5054406;28;19947;-77
2022/01/23 05:18:28;;;;;;;;;;;4.90;99.90;;;;;;5053372;28;19925;-77
2022/01/23 05:21:06;;;;;;;;;;;4.90;99.90;;;;;;5042422;28;20262;-76
2022/01/23 05:23:32;;;;;;;;;;;4.90;99.90;;;;;;5043699;28;19928;-76
2022/01/23 05:25:59;;;;;;;;;;;5.00;99.90;;;;;;5041670;28;20027;-75
2022/01/23 05:28:26;;;;;;;;;;;4.90;99.90;;;;;;5052361;28;20561;-76
2022/01/23 05:30:52;;;;;;;;;;;4.90;99.90;;;;;;5052955;28;19925;-76
2022/01/23 05:33:19;;;;;;;;;;;5.00;99.90;;;;;;5047178;28;19975;-75
2022/01/23 05:35:47;;;;;;;;;;;4.90;99.90;;;;;;5053008;28;19975;-75
2022/01/23 05:38:14;;;;;;;;;;;4.80;99.90;;;;;;5044809;28;20016;-76
2022/01/23 05:40:42;;;;;;;;;;;4.80;99.90;;;;;;5047336;28;20016;-75
2022/01/23 05:43:09;;;;;;;;;;;4.80;99.90;;;;;;5048599;28;19929;-76
2022/01/23 05:45:41;;;;;;;;;;;4.90;99.90;;;;;;5045360;28;19931;-76
2022/01/23 05:48:07;;;;;;;;;;;4.90;99.90;;;;;;5047807;28;19979;-75
2022/01/23 05:50:34;;;;;;;;;;;5.00;99.90;;;;;;5034146;28;19951;-75
2022/01/23 05:53:02;;;;;;;;;;;5.00;99.90;;;;;;5049563;28;19999;-75
2022/01/23 05:55:29;;;;;;;;;;;4.90;99.90;;;;;;5042972;28;19931;-75
2022/01/23 05:57:55;;;;;;;;;;;4.80;99.90;;;;;;5036109;28;19925;-75
2022/01/23 06:00:22;;;;;;;;;;;4.80;99.90;;;;;;5048991;28;20011;-76
2022/01/23 06:02:49;;;;;;;;;;;4.70;99.90;;;;;;5047957;28;19924;-76
2022/01/23 06:05:15;;;;;;;;;;;4.70;99.90;;;;;;5037720;28;19940;-76
2022/01/23 06:07:42;;;;;;;;;;;4.70;99.90;;;;;;5048521;28;19938;-75
2022/01/23 06:10:20;;;;;;;;;;;4.80;99.90;;;;;;5052803;28;19924;-76
2022/01/23 06:12:46;;;;;;;;;;;4.80;99.90;;;;;;5046651;28;19924;-76
2022/01/23 06:15:13;;;;;;;;;;;4.70;99.90;;;;;;5047886;28;19932;-77
2022/01/23 06:17:40;;;;;;;;;;;4.70;99.90;;;;;;5042229;28;19931;-77
2022/01/23 06:20:08;;;;;;;;;;;4.70;99.90;;;;;;5047171;28;19939;-76
2022/01/23 06:22:35;;;;;;;;;;;4.70;99.90;;;;;;5048649;28;19996;-79
2022/01/23 06:25:04;;;;;;;;;;;4.70;99.90;;;;;;5051560;28;19985;-78
2022/01/23 06:27:32;;;;;;;;;;;4.70;99.90;;;;;;5039407;28;19998;-80
2022/01/23 06:29:59;;;;;;;;;;;4.70;99.90;;;;;;5047611;28;19940;-79
2022/01/23 06:32:25;;;;;;;;;;;4.80;99.90;;;;;;5052305;28;20019;-80
2022/01/23 06:34:52;;;;;;;;;;;4.70;99.90;;;;;;5056651;28;19925;-78
2022/01/23 06:37:19;;;;;;;;;;;4.70;99.90;;;;;;5055648;28;19929;-79
2022/01/23 06:39:45;;;;;;;;;;;4.70;99.90;;;;;;5061701;28;20012;-77
2022/01/23 06:42:12;;;;;;;;;;;4.80;99.90;;;;;;5054041;28;19972;-78
2022/01/23 06:44:41;;;;;;;;;;;4.90;99.90;;;;;;5054358;28;19925;-78
2022/01/23 06:47:08;;;;;;;;;;;4.80;99.90;;;;;;5046511;28;19932;-78
2022/01/23 06:49:34;;;;;;;;;;;4.70;99.90;;;;;;5052837;28;20299;-78
2022/01/23 06:52:01;;;;;;;;;;;4.60;99.90;;;;;;5043908;28;19933;-78
2022/01/23 06:54:29;;;;;;;;;;;4.70;99.90;;;;;;5055937;28;20036;-78
2022/01/23 06:56:56;;;;;;;;;;;4.70;99.90;;;;;;5056457;28;19991;-79
2022/01/23 06:59:22;;;;;;;;;;;4.70;99.90;;;;;;5059951;28;19931;-79
2022/01/23 07:01:50;;;;;;;;;;;4.80;99.90;;;;;;5051334;28;20012;-78
2022/01/23 07:04:17;;;;;;;;;;;4.90;99.90;;;;;;5065821;28;19976;-73
2022/01/23 07:06:44;;;;;;;;;;;4.90;99.90;;;;;;5080112;28;19968;-67
2022/01/23 07:09:10;;;;;;;;;;;4.90;99.90;;;;;;5040846;28;19925;-76
2022/01/23 07:11:37;;;;;;;;;;;4.90;99.90;;;;;;5037052;28;19931;-77
2022/01/23 07:14:04;;;;;;;;;;;5.00;99.90;;;;;;5050547;28;19925;-76
2022/01/23 07:16:30;;;;;;;;;;;5.00;99.90;;;;;;5050608;28;19933;-78
2022/01/23 07:18:58;;;;;;;;;;;5.10;99.90;;;;;;5041695;28;19925;-76
2022/01/23 07:21:25;;;;;;;;;;;5.00;99.90;;;;;;5037979;28;19925;-76
2022/01/23 07:23:54;;;;;;;;;;;4.80;99.90;;;;;;5052983;28;19925;-76
2022/01/23 07:26:22;;;;;;;;;;;4.80;99.90;;;;;;5047727;28;20035;-76
2022/01/23 07:28:51;;;;;;;;;;;4.80;99.90;;;;;;5037923;28;19926;-75
2022/01/23 07:31:32;;;;;;;;;;;4.80;99.90;;;;;;5042478;28;20371;-76
2022/01/23 07:34:00;;;;;;;;;;;4.70;99.90;;;;;;5041791;28;19929;-77
2022/01/23 07:36:27;;;;;;;;;;;4.70;99.90;;;;;;5047748;28;20009;-79
2022/01/23 07:38:53;;;;;;;;;;;4.70;99.90;;;;;;5057367;28;19925;-79
2022/01/23 07:41:20;;;;;;;;;;;4.70;99.90;;;;;;5049728;28;19939;-80
2022/01/23 07:43:47;;;;;;;;;;;4.70;99.90;;;;;;5055629;28;19924;-78
2022/01/23 07:46:14;;;;;;;;;;;4.80;99.90;;;;;;5056690;28;19925;-78
2022/01/23 07:48:41;;;;;;;;;;;4.80;99.90;;;;;;5043555;28;19928;-77
2022/01/23 07:51:09;;;;;;;;;;;4.90;99.90;;;;;;5041926;28;20007;-77
2022/01/23 07:53:35;;;;;;;;;;;5.00;99.90;;;;;;5039614;28;19979;-78
2022/01/23 07:56:02;;;;;;;;;;;5.00;99.90;;;;;;5045827;28;19924;-78
2022/01/23 07:58:29;;;;;;;;;;;5.00;99.90;;;;;;5040111;28;20007;-79
2022/01/23 08:00:56;;;;;;;;;;;5.10;99.90;;;;;;5044617;28;19925;-78
2022/01/23 08:03:22;;;;;;;;;;;5.00;99.90;;;;;;5051595;28;19924;-78
2022/01/23 08:05:49;;;;;;;;;;;4.90;99.90;;;;;;5056313;28;19925;-79
2022/01/23 08:08:17;;;;;;;;;;;5.00;99.90;;;;;;5051155;28;19980;-79
2022/01/23 08:10:44;;;;;;;;;;;5.00;99.90;;;;;;5056082;28;19985;-79
2022/01/23 08:13:10;;;;;;;;;;;5.00;99.90;;;;;;5043847;28;20000;-78
2022/01/23 08:15:37;;;;;;;;;;;4.90;99.90;;;;;;5057385;28;20303;-79
2022/01/23 08:18:04;;;;;;;;;;;4.90;99.90;;;;;;5049779;28;20402;-76
2022/01/23 08:20:32;;;;;;;;;;;4.90;99.90;;;;;;5049945;28;20027;-75
2022/01/23 08:23:01;;;;;;;;;;;4.90;99.90;;;;;;5042691;28;19925;-76
2022/01/23 08:25:29;;;;;;;;;;;5.00;99.90;;;;;;5043330;28;19924;-76
2022/01/23 08:27:56;;;;;;;;;;;4.90;99.90;;;;;;5037982;28;19932;-75
2022/01/23 08:30:23;;;;;;;;;;;4.90;99.90;;;;;;5047573;28;20019;-75
2022/01/23 08:32:50;;;;;;;;;;;4.90;99.90;;;;;;5034330;28;19925;-76
2022/01/23 08:35:16;;;;;;;;;;;5.00;99.90;;;;;;5039295;28;19925;-76
2022/01/23 08:37:43;;;;;;;;;;;5.10;99.90;;;;;;5044176;28;19929;-78
2022/01/23 08:40:18;;;;;;;;;;;5.10;99.90;;;;;;5037141;28;19931;-75
2022/01/23 08:42:46;;;;;;;;;;;5.10;99.90;;;;;;5043985;28;20015;-76
2022/01/23 08:45:14;;;;;;;;;;;5.20;99.90;;;;;;5047114;28;20011;-76
2022/01/23 08:47:41;;;;;;;;;;;5.20;99.90;;;;;;5047115;28;19947;-76
2022/01/23 08:50:08;;;;;;;;;;;5.30;99.90;;;;;;5041683;28;19925;-77
2022/01/23 08:52:35;;;;;;;;;;;5.30;99.90;;;;;;5045396;28;19924;-77
2022/01/23 08:55:02;;;;;;;;;;;5.30;99.90;;;;;;5044148;28;19925;-76
2022/01/23 08:57:28;;;;;;;;;;;5.30;99.90;;;;;;5048226;28;19931;-75
2022/01/23 08:59:56;;;;;;;;;;;5.30;99.90;;;;;;5047257;28;19925;-76
2022/01/23 09:02:23;;;;;;;;;;;5.30;99.90;;;;;;5041474;28;19933;-77
2022/01/23 09:04:50;;;;;;;;;;;5.40;99.90;;;;;;5039752;28;19929;-76
2022/01/23 09:07:17;;;;;;;;;;;5.40;99.90;;;;;;5045997;28;19924;-77
2022/01/23 09:09:43;;;;;;;;;;;5.40;99.90;;;;;;5039881;28;19925;-76
2022/01/23 09:12:26;;;;;;;;;;;5.40;99.90;;;;;;5038397;28;20396;-77
2022/01/23 09:14:53;;;;;;;;;;;5.40;99.90;;;;;;5045198;28;19925;-76
2022/01/23 09:17:21;;;;;;;;;;;5.40;99.90;;;;;;5043189;28;20007;-76
2022/01/23 09:19:48;;;;;;;;;;;5.40;99.90;;;;;;5048135;28;19961;-76
2022/01/23 09:22:14;;;;;;;;;;;5.40;99.90;;;;;;5042290;28;19931;-77
2022/01/23 09:24:42;;;;;;;;;;;5.40;99.90;;;;;;5049446;28;20213;-77
2022/01/23 09:27:18;;;;;;;;;;;5.50;99.90;;;;;;5048845;28;19925;-76
2022/01/23 09:29:47;;;;;;;;;;;5.50;99.90;;;;;;5041699;28;19932;-77
2022/01/23 09:32:14;;;;;;;;;;;5.50;99.90;;;;;;5052061;28;19976;-76
2022/01/23 09:34:43;;;;;;;;;;;5.50;99.90;;;;;;5040085;28;20391;-75
2022/01/23 09:37:10;;;;;;;;;;;5.50;99.90;;;;;;5052580;28;20330;-76
2022/01/23 09:39:38;;;;;;;;;;;5.50;99.90;;;;;;5047676;28;20098;-75
2022/01/23 09:42:06;;;;;;;;;;;5.60;99.90;;;;;;5049894;28;20019;-75
2022/01/23 09:44:37;;;;;;;;;;;5.60;99.90;;;;;;5043182;28;19932;-76
2022/01/23 09:47:04;;;;;;;;;;;5.60;99.90;;;;;;5045384;28;19925;-76
2022/01/23 09:49:31;;;;;;;;;;;5.60;99.90;;;;;;5050124;28;19932;-75
2022/01/23 09:52:01;;;;;;;;;;;5.60;99.90;;;;;;5049916;28;20015;-76
2022/01/23 09:54:29;;;;;;;;;;;5.60;99.90;;;;;;5051759;28;20167;-75
2022/01/23 09:56:58;;;;;;;;;;;5.60;99.90;;;;;;5042237;28;19925;-75
2022/01/23 09:59:24;;;;;;;;;;;5.60;99.90;;;;;;5040171;28;19980;-75
2022/01/23 10:01:55;;;;;;;;;;;5.60;99.90;;;;;;5041869;28;19924;-76
2022/01/23 10:04:22;;;;;;;;;;;5.60;99.90;;;;;;5039998;28;20032;-75
2022/01/23 10:06:49;;;;;;;;;;;5.70;99.90;;;;;;5048009;28;19925;-75
2022/01/23 10:09:17;;;;;;;;;;;5.80;99.90;;;;;;5044827;28;20311;-75
2022/01/23 10:11:44;;;;;;;;;;;5.80;99.90;;;;;;5047025;28;19980;-75
2022/01/23 10:14:10;;;;;;;;;;;5.90;99.90;;;;;;5045917;28;19954;-75
2022/01/23 10:16:37;;;;;;;;;;;5.80;99.90;;;;;;5053516;28;19931;-75
2022/01/23 10:19:04;;;;;;;;;;;5.80;99.90;;;;;;5047862;28;19925;-76
2022/01/23 10:21:32;;;;;;;;;;;5.60;99.90;;;;;;5047167;28;19931;-76
2022/01/23 10:23:59;;;;;;;;;;;5.70;99.90;;;;;;5042074;28;19933;-75
2022/01/23 10:26:42;;;;;;;;;;;5.70;99.90;;;;;;5046190;28;20420;-76
2022/01/23 10:29:14;;;;;;;;;;;5.70;99.90;;;;;;5048165;28;19932;-75
2022/01/23 10:31:55;;;;;;;;;;;5.70;99.90;;;;;;5036405;28;19933;-75
2022/01/23 10:34:39;;;;;;;;;;;5.70;99.90;;;;;;5044333;28;20398;-75
2022/01/23 10:37:09;;;;;;;;;;;5.80;99.90;;;;;;5040890;28;19932;-76
2022/01/23 10:39:39;;;;;;;;;;;5.90;99.90;;;;;;5045721;28;19925;-76
2022/01/23 10:42:28;;;;;;;;;;;5.90;99.90;;;;;;5040548;28;19929;-76
2022/01/23 10:47:49;;;;;;;;;;;6.00;99.90;;;;;;5041268;28;19955;-76
2022/01/23 10:50:16;;;;;;;;;;;6.00;99.90;;;;;;5048347;28;19929;-76
2022/01/23 10:52:45;;;;;;;;;;;6.00;99.90;;;;;;5042836;28;20031;-76
2022/01/23 10:55:24;;;;;;;;;;;6.10;99.90;;;;;;5042007;28;19974;-77
2022/01/23 10:57:54;;;;;;;;;;;6.10;99.90;;;;;;5038264;28;19928;-76
2022/01/23 11:00:25;;;;;;;;;;;6.10;99.90;;;;;;5047351;28;20349;-76
2022/01/23 11:02:52;;;;;;;;;;;6.20;99.90;;;;;;5041870;28;20410;-76
2022/01/23 11:05:19;;;;;;;;;;;6.20;99.90;;;;;;5046425;28;19924;-76
2022/01/23 11:07:47;;;;;;;;;;;6.20;99.90;;;;;;5038867;28;20463;-76
2022/01/23 11:10:15;;;;;;;;;;;6.20;99.90;;;;;;5046749;28;20025;-78
2022/01/23 11:17:21;;;;;;;;;;;6.20;99.90;;;;;;5042054;28;19924;-76
2022/01/23 11:18:31;;;;;;;;;;;5.90;99.90;;;;;;5037554;28;22602;-76
2022/01/23 11:20:58;;;;;;;;;;;5.80;99.90;;;;;;5041436;28;19989;-76
2022/01/23 11:23:27;;;;;;;;;;;5.80;99.90;;;;;;5038023;28;20007;-76
2022/01/23 11:26:07;;;;;;;;;;;5.90;99.90;;;;;;5049029;28;19968;-75
2022/01/23 11:28:36;;;;;;;;;;;5.90;99.90;;;;;;5041168;28;19925;-75
2022/01/23 11:31:05;;;;;;;;;;;6.00;99.90;;;;;;5042682;28;19932;-76
2022/01/23 11:33:32;;;;;;;;;;;6.10;99.90;;;;;;5044925;28;19932;-76
2022/01/23 11:36:00;;;;;;;;;;;6.20;99.90;;;;;;5040476;28;19925;-77
2022/01/23 11:38:28;;;;;;;;;;;6.20;99.90;;;;;;5034719;28;20002;-77
2022/01/23 11:54:59;;;;;;;;;;;6.00;99.90;;;;;;5040112;28;20292;-76
2022/01/23 11:57:40;;;;;;;;;;;6.10;99.90;;;;;;5035557;28;19980;-76
2022/01/23 12:00:08;;;;;;;;;;;6.10;99.90;;;;;;5038769;28;19931;-76
2022/01/23 12:02:39;;;;;;;;;;;6.20;99.90;;;;;;5041399;28;19925;-76
2022/01/23 12:05:25;;;;;;;;;;;6.30;99.90;;;;;;5044358;28;19975;-76
2022/01/23 12:08:14;;;;;;;;;;;6.20;99.90;;;;;;5046033;28;20153;-76
2022/01/23 12:10:53;;;;;;;;;;;6.00;99.90;;;;;;5040066;28;19925;-76
2022/01/23 12:13:54;;;;;;;;;;;6.10;99.90;;;;;;5046226;28;19928;-75
2022/01/23 12:16:26;;;;;;;;;;;6.20;99.90;;;;;;5038891;28;20611;-76
2022/01/23 12:19:13;;;;;;;;;;;6.30;99.90;;;;;;5036418;28;23202;-76
2022/01/23 12:21:40;;;;;;;;;;;6.40;99.90;;;;;;5045520;28;19924;-75
2022/01/23 12:24:09;;;;;;;;;;;6.40;99.90;;;;;;5039466;28;19925;-75
2022/01/23 12:26:35;;;;;;;;;;;6.30;99.90;;;;;;5042565;28;19939;-75
2022/01/23 12:29:10;;;;;;;;;;;6.30;99.90;;;;;;5041525;28;20396;-75
2022/01/23 12:31:37;;;;;;;;;;;6.30;99.90;;;;;;5039566;28;19950;-77
2022/01/23 12:34:05;;;;;;;;;;;6.30;99.90;;;;;;5041376;28;19951;-76
2022/01/23 12:36:33;;;;;;;;;;;6.40;99.90;;;;;;5040358;28;19928;-75
2022/01/23 12:39:17;;;;;;;;;;;6.60;99.90;;;;;;5043187;28;20395;-75
2022/01/23 12:41:53;;;;;;;;;;;6.70;99.90;;;;;;5040842;28;19971;-77
2022/01/23 12:44:32;;;;;;;;;;;6.70;99.90;;;;;;5041224;28;20016;-72
2022/01/23 12:47:01;;;;;;;;;;;6.70;99.90;;;;;;5049955;28;20471;-73
2022/01/23 12:49:30;;;;;;;;;;;6.70;99.90;;;;;;5048981;28;20011;-73
2022/01/23 12:52:12;;;;;;;;;;;6.70;99.90;;;;;;5036697;28;20330;-74
2022/01/23 12:54:50;;;;;;;;;;;6.70;99.90;;;;;;5048684;28;19925;-73
2022/01/23 12:57:18;;;;;;;;;;;6.70;99.90;;;;;;5049671;28;20429;-72
2022/01/23 12:59:51;;;;;;;;;;;6.80;99.90;;;;;;5043167;28;20284;-73
2022/01/23 13:02:20;;;;;;;;;;;6.80;99.90;;;;;;5040564;28;19925;-72
2022/01/23 13:04:49;;;;;;;;;;;6.80;99.90;;;;;;5050369;28;19924;-73
2022/01/23 13:07:30;;;;;;;;;;;6.80;99.90;;;;;;5049996;28;19987;-72
2022/01/23 13:10:08;;;;;;;;;;;6.80;99.90;;;;;;5043441;28;19932;-72
2022/01/23 13:12:50;;;;;;;;;;;6.70;99.90;;;;;;5037841;28;19967;-72
2022/01/23 13:18:11;;;;;;;;;;;6.70;99.90;;;;;;5041786;28;20311;-73
2022/01/23 13:32:10;;;;;;;;;;;6.70;99.90;;;;;;5036397;28;19925;-73
2022/01/23 13:35:22;;;;;;;;;;;6.70;99.90;;;;;;5045127;28;20015;-73
2022/01/23 13:41:09;;;;;;;;;;;6.60;99.90;;;;;;5045175;28;19931;-75
2022/01/23 13:52:36;;;;;;;;;;;6.60;99.90;;;;;;5027828;27;19925;-73
2022/01/23 14:00:57;;;;;;;;;;;6.70;99.90;;;;;;5038281;28;20387;-72
2022/01/23 14:03:24;;;;;;;;;;;6.70;99.90;;;;;;5016551;28;20013;-73
2022/01/23 14:05:51;;;;;;;;;;;6.60;99.90;;;;;;5011711;28;19957;-73
2022/01/23 14:08:20;;;;;;;;;;;6.60;99.90;;;;;;5015649;28;19929;-73
2022/01/23 14:10:46;;;;;;;;;;;6.70;99.90;;;;;;5018272;28;19931;-73
2022/01/23 14:13:15;;;;;;;;;;;6.60;99.90;;;;;;5021695;28;20296;-73
2022/01/23 14:15:43;;;;;;;;;;;6.60;99.90;;;;;;5014573;28;19971;-73
2022/01/23 14:18:11;;;;;;;;;;;6.50;99.90;;;;;;5019211;28;19976;-73
2022/01/23 14:20:39;;;;;;;;;;;6.60;99.90;;;;;;5017995;28;19925;-74
2022/01/23 14:23:16;;;;;;;;;;;6.60;99.90;;;;;;5018675;28;19932;-74
2022/01/23 14:25:48;;;;;;;;;;;6.60;99.90;;;;;;5014489;28;19932;-73
2022/01/23 14:28:17;;;;;;;;;;;6.70;99.90;;;;;;5019416;28;19969;-73
2022/01/23 14:30:46;;;;;;;;;;;6.60;99.90;;;;;;5021875;28;19932;-73
2022/01/23 14:33:14;;;;;;;;;;;6.70;99.90;;;;;;5018082;28;20268;-73
2022/01/23 14:35:41;;;;;;;;;;;6.70;99.90;;;;;;5011215;28;20016;-73
2022/01/23 14:38:09;;;;;;;;;;;6.70;99.90;;;;;;5017030;28;20436;-73
2022/01/23 14:40:36;;;;;;;;;;;6.60;99.90;;;;;;5008300;28;19926;-72
2022/01/23 14:43:08;;;;;;;;;;;6.70;99.90;;;;;;5018589;28;20381;-73
2022/01/23 14:45:36;;;;;;;;;;;6.70;99.90;;;;;;5008478;28;19936;-73
2022/01/23 14:48:04;;;;;;;;;;;6.60;99.90;;;;;;5015086;28;19926;-73
2022/01/23 14:50:32;;;;;;;;;;;6.60;99.90;;;;;;5018812;28;20021;-73
2022/01/23 14:53:05;;;;;;;;;;;6.60;99.90;;;;;;5019607;28;19980;-73
2022/01/23 14:55:32;;;;;;;;;;;6.60;99.90;;;;;;5010706;28;20497;-73
2022/01/23 14:58:01;;;;;;;;;;;6.50;99.90;;;;;;5018048;28;19933;-74
2022/01/23 15:00:30;;;;;;;;;;;6.50;99.90;;;;;;5016162;28;19925;-73
2022/01/23 15:02:57;;;;;;;;;;;6.50;99.90;;;;;;5008740;28;20008;-73
2022/01/23 15:05:24;;;;;;;;;;;6.50;99.90;;;;;;5000641;28;19925;-73
2022/01/23 15:07:52;;;;;;;;;;;6.50;99.90;;;;;;4995180;28;19930;-73
2022/01/23 15:10:18;;;;;;;;;;;6.50;99.90;;;;;;5002019;28;19930;-73
2022/01/23 15:12:45;;;;;;;;;;;6.50;99.90;;;;;;5005949;28;19925;-72
2022/01/23 15:15:12;;;;;;;;;;;6.50;99.90;;;;;;5003737;28;20017;-72
2022/01/23 15:17:40;;;;;;;;;;;6.50;99.90;;;;;;5004218;28;20375;-72
2022/01/23 15:20:08;;;;;;;;;;;6.50;99.90;;;;;;5001265;28;20016;-73
2022/01/23 15:22:35;;;;;;;;;;;6.50;99.90;;;;;;5003451;28;19933;-73
2022/01/23 15:25:01;;;;;;;;;;;6.30;99.90;;;;;;5012724;28;20299;-74
2022/01/23 15:27:28;;;;;;;;;;;6.20;99.90;;;;;;5011346;28;19930;-74
2022/01/23 15:29:58;;;;;;;;;;;6.10;99.90;;;;;;4999699;28;20333;-74
2022/01/23 15:32:24;;;;;;;;;;;6.10;99.90;;;;;;4995379;28;20363;-73
2022/01/23 15:34:53;;;;;;;;;;;6.10;99.90;;;;;;5010474;28;19933;-74
2022/01/23 15:37:20;;;;;;;;;;;6.10;99.90;;;;;;5005082;28;19937;-74
2022/01/23 15:39:46;;;;;;;;;;;6.10;99.90;;;;;;5001772;28;19949;-74
2022/01/23 15:42:14;;;;;;;;;;;6.00;99.90;;;;;;4999836;28;19926;-73
2022/01/23 15:44:42;;;;;;;;;;;6.10;99.90;;;;;;5005491;28;19932;-74
2022/01/23 15:47:08;;;;;;;;;;;6.10;99.90;;;;;;5006249;28;20399;-72
2022/01/23 15:49:35;;;;;;;;;;;6.00;99.90;;;;;;5005215;28;19926;-72
2022/01/23 15:52:04;;;;;;;;;;;6.10;99.90;;;;;;5004592;28;19925;-73
2022/01/23 15:54:34;;;;;;;;;;;6.00;99.90;;;;;;5006085;28;19978;-73
2022/01/23 15:57:01;;;;;;;;;;;6.00;99.90;;;;;;5007364;28;19926;-73
2022/01/23 15:59:28;;;;;;;;;;;6.00;99.90;;;;;;5007873;28;20003;-72
2022/01/23 16:01:55;;;;;;;;;;;6.00;99.90;;;;;;5002372;28;19926;-74
2022/01/23 16:04:22;;;;;;;;;;;6.00;99.90;;;;;;5000461;28;20139;-71
2022/01/23 16:06:51;;;;;;;;;;;6.00;99.90;;;;;;5006561;28;19930;-73
2022/01/23 16:09:20;;;;;;;;;;;6.00;99.90;;;;;;5003871;28;19942;-73
2022/01/23 16:11:46;;;;;;;;;;;6.00;99.90;;;;;;4996473;28;19926;-72
2022/01/23 16:14:13;;;;;;;;;;;6.00;99.90;;;;;;5002395;28;20265;-73
2022/01/23 16:16:40;;;;;;;;;;;6.10;99.90;;;;;;4991890;28;20282;-74
2022/01/23 16:19:06;;;;;;;;;;;6.00;99.90;;;;;;4997551;28;19929;-74
2022/01/23 16:21:33;;;;;;;;;;;6.00;99.90;;;;;;4999070;28;20291;-74
2022/01/23 16:24:00;;;;;;;;;;;6.10;99.90;;;;;;5005355;28;19940;-73
2022/01/23 16:26:31;;;;;;;;;;;6.10;99.90;;;;;;5000381;28;19934;-74
2022/01/23 16:28:58;;;;;;;;;;;6.10;99.90;;;;;;4997927;28;19926;-73
2022/01/23 16:31:25;;;;;;;;;;;6.10;99.90;;;;;;4997672;28;20011;-73
2022/01/23 16:33:52;;;;;;;;;;;6.10;99.90;;;;;;4995873;28;20401;-73
2022/01/23 16:36:19;;;;;;;;;;;6.10;99.90;;;;;;4995696;28;19926;-73
2022/01/23 16:38:47;;;;;;;;;;;6.00;99.90;;;;;;5000490;28;19926;-73
2022/01/23 16:41:13;;;;;;;;;;;6.00;99.90;;;;;;5004517;28;19929;-74
2022/01/23 16:43:41;;;;;;;;;;;5.90;99.90;;;;;;4997967;28;19929;-72
2022/01/23 16:46:16;;;;;;;;;;;5.90;99.90;;;;;;5001226;28;19925;-74
2022/01/23 16:48:42;;;;;;;;;;;5.90;99.90;;;;;;5003838;28;19956;-74
2022/01/23 16:51:09;;;;;;;;;;;6.00;99.90;;;;;;4993603;28;21909;-73
2022/01/23 16:53:36;;;;;;;;;;;6.00;99.90;;;;;;5002096;28;19931;-73
2022/01/23 16:56:03;;;;;;;;;;;6.00;99.90;;;;;;5001834;28;19940;-73
2022/01/23 16:58:30;;;;;;;;;;;6.10;99.90;;;;;;4997452;28;20025;-73
2022/01/23 17:00:58;;;;;;;;;;;6.10;99.90;;;;;;4999218;28;20008;-74
2022/01/23 17:03:25;;;;;;;;;;;6.00;99.90;;;;;;5003226;28;20277;-74
2022/01/23 17:05:56;;;;;;;;;;;6.00;99.90;;;;;;5004447;28;20426;-75
2022/01/23 17:08:24;;;;;;;;;;;6.00;99.90;;;;;;5004362;28;19926;-75
2022/01/23 17:10:52;;;;;;;;;;;6.00;99.90;;;;;;5001074;28;19933;-74
2022/01/23 17:13:19;;;;;;;;;;;6.00;99.90;;;;;;5001122;28;19925;-73
2022/01/23 17:15:46;;;;;;;;;;;6.00;99.90;;;;;;4998296;28;19933;-73
2022/01/23 17:18:14;;;;;;;;;;;6.00;99.90;;;;;;5000369;28;19933;-75
2022/01/23 17:20:44;;;;;;;;;;;5.90;99.90;;;;;;4999612;28;19934;-74
2022/01/23 17:23:11;;;;;;;;;;;5.90;99.90;;;;;;4997280;28;20319;-71
2022/01/23 17:25:41;;;;;;;;;;;5.80;99.90;;;;;;4997309;28;19925;-71
2022/01/23 17:28:08;;;;;;;;;;;5.80;99.90;;;;;;4999020;28;19925;-73
2022/01/23 17:30:35;;;;;;;;;;;5.80;99.90;;;;;;5000366;28;20387;-72
2022/01/23 17:33:02;;;;;;;;;;;5.80;99.90;;;;;;4994025;28;20360;-72